Meteo

Meteo


Dettagli e Storico

Webcam

Webcam in aeroporto – Aggiornata ogni minuto
Osservatorio Meteorologico Cocomaro di Cona – Ferrara

NOAA IMAGE

NOAA

Windy

METAR

Aviation Digital Data Service (ADDS)

Output produced by METARs form (1528 UTC 17 September 2021)
found at http://www.aviationweather.gov/metar/data/
 
METAR text: LIPF 171455Z /////KT 9999 FEW025 26/19 Q1010 RMK FEW VIS MIN 9999
Conditions at: LIPF (FERRARA (AUT) , IT) observed 1455 UTC 17 September 2021
Temperature: 26.0°C (79°F)
Dewpoint: 19.0°C (66°F) [RH = 65%]
Pressure (altimeter): 29.82 inches Hg (1010.0 mb)
Winds: missing
Visibility: 6 or more miles (10+ km)
Ceiling: at least 12,000 feet AGL
Clouds: few clouds at 2500 feet AGL
Weather: no significant weather observed at this time

METAR text: LIPE 171520Z VRB02KT 9999 FEW040 27/17 Q1009
Conditions at: LIPE (BOLOGNA/BORGO (A, IT) observed 1520 UTC 17 September 2021
Temperature: 27.0°C (81°F)
Dewpoint: 17.0°C (63°F) [RH = 54%]
Pressure (altimeter): 29.79 inches Hg (1009.0 mb)
Winds: variable direction winds at 2 MPH (2 knots; 1.0 m/s)
Visibility: 6 or more miles (10+ km)
Ceiling: at least 12,000 feet AGL
Clouds: few clouds at 4000 feet AGL
Weather: no significant weather observed at this time

Forecast for: LIPE (BOLOGNA/BORGO (A, IT)
Text: TAF LIPE 171100Z 1712/1812 27006KT 9999 FEW040
Forecast period: 1200 UTC 17 September 2021 to 1200 UTC 18 September 2021
Forecast type: FROM: standard forecast or significant change
Winds: from the W (270 degrees) at 7 MPH (6 knots; 3.1 m/s)
Visibility: 6 or more miles (10+ km)
Ceiling: at least 12,000 feet AGL
Clouds: few clouds at 4000 feet AGL
Weather: no significant weather forecast for this period
Text: PROB30
Forecast period: 1300 to 1600 UTC 17 September 2021
Forecast type: TEMPORARY: The following changes expected for less than half the time period
Visibility: missing
Ceiling: unknown
Clouds: missing
Weather: TSRA  (rain associated with thunderstorm(s))

METAR text: LIPX 171520Z 13004KT 090V200 9999 FEW040 26/16 Q1009
Conditions at: LIPX (VILLAFRANCA(CV/M, IT) observed 1520 UTC 17 September 2021
Temperature: 26.0°C (79°F)
Dewpoint: 16.0°C (61°F) [RH = 54%]
Pressure (altimeter): 29.79 inches Hg (1009.0 mb)
Winds: from the SE (130 degrees) at 5 MPH (4 knots; 2.1 m/s)
Visibility: 6 or more miles (10+ km)
Ceiling: at least 12,000 feet AGL
Clouds: few clouds at 4000 feet AGL
Weather: no significant weather observed at this time

Forecast for: LIPX (VILLAFRANCA(CV/M, IT)
Text: TAF LIPX 171100Z 1712/1812 VRB05KT 9999 SCT014
Forecast period: 1200 UTC 17 September 2021 to 1200 UTC 18 September 2021
Forecast type: FROM: standard forecast or significant change
Winds: variable direction winds at 6 MPH (5 knots; 2.6 m/s)
Visibility: 6 or more miles (10+ km)
Ceiling: at least 12,000 feet AGL
Clouds: scattered clouds at 1400 feet AGL
Weather: no significant weather forecast for this period
Text: TEMPO 1712/1715 3000 BR TSRA
Forecast period: 1200 to 1500 UTC 17 September 2021
Forecast type: TEMPORARY: The following changes expected for less than half the time period
Visibility: 1.86 miles (2.99 km)
Ceiling: unknown
Clouds: missing
Weather: BR TSRA  (mist, rain associated with thunderstorm(s))
Text: TEMPO 1800/1804 1400 BR
Forecast period: 0000 to 0400 UTC 18 September 2021
Forecast type: TEMPORARY: The following changes expected for less than half the time period
Visibility: 0.87 miles (1.40 km)
Ceiling: unknown
Clouds: missing
Weather: BR  (mist)

METAR text: LIPZ 171520Z 15003KT 110V200 9999 FEW025 25/17 Q1010 NOSIG
Conditions at: LIPZ (VENEZIA/TESSERA , IT) observed 1520 UTC 17 September 2021
Temperature: 25.0°C (77°F)
Dewpoint: 17.0°C (63°F) [RH = 61%]
Pressure (altimeter): 29.82 inches Hg (1010.0 mb)
Winds: from the SSE (150 degrees) at 3 MPH (3 knots; 1.5 m/s)
Visibility: 6 or more miles (10+ km)
Ceiling: at least 12,000 feet AGL
Clouds: few clouds at 2500 feet AGL
Weather: no significant weather observed at this time

Forecast for: LIPZ (VENEZIA/TESSERA , IT)
Text: TAF LIPZ 171100Z 1712/1818 04008KT 9999 SCT030
Forecast period: 1200 UTC 17 September 2021 to 1800 UTC 18 September 2021
Forecast type: FROM: standard forecast or significant change
Winds: from the NE (40 degrees) at 9 MPH (8 knots; 4.1 m/s)
Visibility: 6 or more miles (10+ km)
Ceiling: at least 12,000 feet AGL
Clouds: scattered clouds at 3000 feet AGL
Weather: no significant weather forecast for this period